Airfield :
LOGIN :

Register | Disclaimer

   EN    FR    IT 

 










Legend :    VFR   Marginal VFR   IFR   Intensive IFR   Very Intensive IFR
Visi :
Ceiling :
>= 8 km
>= 3000ft
5 to 8 km
1000 to 3000 ft
1500m to 5 km
500 to 1000 ft
800 to 1500m
200 to 500 ft
< 800m
< 200 ft
Symbols :   Thunderstorms  Fog  Heavy snow  Heavy precipitations  Wind > 20 kt
SIGMETs :     Misc.  Thunderstorms  Icing  Turbulence  Mountain Waves  Volcanic Ashes






- Airport Elevation : 459 ft
- IATA code : CER


LFRC - Cherbourg / Maupertus

CURRENT METAR :
  • 200300Z AUTO 20021KT 9999 OVC012 09/07 Q0998

EXPIRED METARs :
  • 200230Z AUTO 20023G35KT 9999 BKN011 OVC018 09/07 Q0998
  • 200200Z AUTO 19022G33KT 9999 OVC008 09/07 Q0999
  • 200130Z AUTO 20021G31KT 9999 OVC008 09/08 Q0999
  • 200100Z AUTO 20022G35KT 170V230 9999 OVC007 08/08 Q0999
  • 200030Z AUTO 19020G33KT 9999 BKN007 OVC014 08/08 Q1000

Expired Forecast.



MET'MAP, your aeronautical weather chart ! - Copyright ORBIFLY December 2007 - Disclaimer

ORBIFLY MET'MAP TEAM :

Programming & Development : Alexandra Zaïnal
Concept & original design : Baudouin d'Aumeries
Assistance for programming : Marc-Olivier Méhu
Technical & hardware support : Manuel Goepfert

Contact : metmap@orbifly.com




SOURCES & CREDITS :

   NOAA